createdAt,value
2018-05-29T00:00:16.924Z,87.45
2018-05-29T00:01:37.842Z,88.12
2018-05-29T00:02:16.780Z,89.09
2018-05-29T00:03:16.711Z,90.68
2018-05-29T00:04:16.657Z,89.62
2018-05-29T00:05:16.572Z,89.62
2018-05-29T00:06:16.511Z,88.75
2018-05-29T00:07:37.425Z,88.85
2018-05-29T00:08:16.375Z,88.56
2018-05-29T00:09:16.339Z,88.17
2018-05-29T00:10:16.326Z,87.21
2018-05-29T00:11:16.180Z,87.50
2018-05-29T00:12:16.101Z,87.50
2018-05-29T00:13:37.025Z,87.30
2018-05-29T00:14:15.962Z,88.46
2018-05-29T00:15:15.895Z,88.65
2018-05-29T00:16:15.829Z,87.98
2018-05-29T00:17:15.764Z,87.40
2018-05-29T00:18:15.698Z,88.46
2018-05-29T00:19:36.624Z,88.56
2018-05-29T00:20:15.589Z,88.42
2018-05-29T00:21:15.495Z,88.81
2018-05-29T00:22:15.419Z,89.39
2018-05-29T00:23:15.348Z,89.39
2018-05-29T00:24:15.285Z,90.25
2018-05-29T00:25:36.202Z,90.34
2018-05-29T00:26:15.151Z,89.00
2018-05-29T00:27:15.075Z,89.19
2018-05-29T00:28:15.034Z,90.16
2018-05-29T00:29:14.939Z,89.19
2018-05-29T00:30:14.881Z,89.04
2018-05-29T00:31:35.786Z,89.39
2018-05-29T00:32:14.736Z,89.04
2018-05-29T00:33:14.669Z,88.71
2018-05-29T00:34:14.601Z,88.90
2018-05-29T00:35:14.531Z,88.42
2018-05-29T00:36:14.483Z,88.90
2018-05-29T00:37:35.394Z,88.85
2018-05-29T00:38:14.323Z,89.00
2018-05-29T00:39:14.259Z,88.13
2018-05-29T00:40:14.200Z,88.32
2018-05-29T00:41:14.122Z,88.32
2018-05-29T00:42:14.050Z,88.42
2018-05-29T00:43:34.984Z,88.81
2018-05-29T00:44:13.912Z,88.71
2018-05-29T00:45:13.849Z,88.42
2018-05-29T00:46:13.789Z,88.42
2018-05-29T00:47:13.718Z,88.90
2018-05-29T00:48:13.658Z,88.71
2018-05-29T00:49:34.570Z,88.95
2018-05-29T00:50:13.540Z,87.94
2018-05-29T00:51:13.440Z,88.13
2018-05-29T00:52:13.377Z,88.61
2018-05-29T00:53:13.304Z,88.17
2018-05-29T00:54:13.236Z,87.50
2018-05-29T00:55:34.158Z,86.92
2018-05-29T00:56:13.098Z,86.30
2018-05-29T00:57:13.027Z,86.21
2018-05-29T00:58:12.967Z,86.88
2018-05-29T00:59:12.896Z,87.46
2018-05-29T01:00:12.831Z,87.36
2018-05-29T01:01:33.743Z,87.55
2018-05-29T01:02:12.694Z,87.74
2018-05-29T01:03:12.622Z,87.36
2018-05-29T01:04:12.557Z,87.55
2018-05-29T01:05:12.496Z,86.88
2018-05-29T01:06:12.426Z,86.30
2018-05-29T01:07:33.334Z,86.78
2018-05-29T01:08:12.284Z,87.55
2018-05-29T01:09:12.218Z,87.46
2018-05-29T01:10:12.145Z,87.84
2018-05-29T01:11:12.091Z,88.71
2018-05-29T01:12:12.013Z,89.09
2018-05-29T01:13:32.945Z,88.28
2018-05-29T01:14:11.876Z,88.42
2018-05-29T01:15:11.810Z,87.94
2018-05-29T01:16:11.765Z,88.38
2018-05-29T01:17:11.668Z,89.96
2018-05-29T01:18:11.598Z,90.92
2018-05-29T01:19:32.518Z,91.50
2018-05-29T01:20:11.464Z,90.64
2018-05-29T01:21:11.400Z,89.19
2018-05-29T01:22:11.325Z,89.58
2018-05-29T01:23:11.255Z,90.06
2018-05-29T01:24:11.200Z,89.43
2018-05-29T01:25:32.110Z,90.88
2018-05-29T01:26:11.050Z,90.83
2018-05-29T01:27:10.979Z,90.25
2018-05-29T01:28:10.920Z,90.06
2018-05-29T01:29:10.842Z,90.16
2018-05-29T01:30:10.778Z,90.30
2018-05-29T01:31:31.692Z,91.36
2018-05-29T01:32:10.645Z,92.42
2018-05-29T01:33:10.584Z,93.67
2018-05-29T01:34:10.504Z,93.33
2018-05-29T01:35:10.439Z,93.72
2018-05-29T01:36:10.372Z,94.49
2018-05-29T01:37:31.295Z,94.40
2018-05-29T01:38:10.227Z,94.01
2018-05-29T01:39:10.168Z,94.30
2018-05-29T01:40:10.098Z,94.30
2018-05-29T01:41:10.029Z,94.78
2018-05-29T01:42:09.960Z,94.87
2018-05-29T01:43:30.905Z,95.12
2018-05-29T01:44:09.818Z,94.92
2018-05-29T01:45:09.756Z,95.31
2018-05-29T01:46:09.689Z,95.26
2018-05-29T01:47:09.620Z,94.49
2018-05-29T01:48:09.542Z,94.64
2018-05-29T01:49:30.479Z,95.02
2018-05-29T01:50:09.412Z,94.83
2018-05-29T01:51:09.336Z,95.60
2018-05-29T01:52:09.282Z,96.37
2018-05-29T01:53:09.195Z,96.56
2018-05-29T01:54:09.130Z,96.85
2018-05-29T01:55:30.053Z,96.75
2018-05-29T01:56:08.988Z,96.75
2018-05-29T01:57:08.923Z,96.37
2018-05-29T01:58:08.858Z,96.85
2018-05-29T01:59:08.785Z,97.71
2018-05-29T02:00:08.733Z,97.24
2018-05-29T02:01:29.637Z,97.62
2018-05-29T02:02:08.580Z,96.56
2018-05-29T02:03:08.524Z,97.24
2018-05-29T02:04:08.438Z,97.42
2018-05-29T02:05:08.374Z,97.24
2018-05-29T02:06:08.298Z,97.52
2018-05-29T02:07:29.256Z,97.42
2018-05-29T02:08:08.166Z,97.52
2018-05-29T02:09:08.094Z,97.86
2018-05-29T02:10:08.026Z,98.58
2018-05-29T02:11:07.959Z,98.34
2018-05-29T02:12:07.894Z,99.01
2018-05-29T02:13:28.816Z,98.82
2018-05-29T02:14:07.778Z,99.01
2018-05-29T02:15:07.690Z,98.53
2018-05-29T02:16:07.614Z,99.40
2018-05-29T02:17:07.547Z,99.11
2018-05-29T02:18:07.545Z,98.72
2018-05-29T02:19:28.405Z,99.49
2018-05-29T02:20:07.374Z,98.77
2018-05-29T02:21:07.272Z,99.11
2018-05-29T02:22:07.209Z,99.49
2018-05-29T02:23:07.134Z,99.11
2018-05-29T02:24:07.057Z,99.98
2018-05-29T02:25:27.973Z,99.99
2018-05-29T02:26:06.919Z,99.78
2018-05-29T02:27:06.851Z,99.99
2018-05-29T02:28:06.793Z,99.99
2018-05-29T02:29:06.715Z,99.88
2018-05-29T02:30:06.682Z,99.98
2018-05-29T02:31:27.564Z,99.59
2018-05-29T02:32:06.508Z,99.78
2018-05-29T02:33:06.456Z,99.40
2018-05-29T02:34:06.365Z,99.49
2018-05-29T02:35:06.296Z,98.53
2018-05-29T02:36:06.241Z,98.82
2018-05-29T02:37:27.152Z,99.40
2018-05-29T02:38:06.112Z,98.82
2018-05-29T02:39:06.018Z,98.82
2018-05-29T02:40:05.954Z,98.14
2018-05-29T02:41:05.897Z,98.14
2018-05-29T02:42:05.812Z,97.76
2018-05-29T02:43:26.737Z,97.67
2018-05-29T02:44:05.689Z,97.76
2018-05-29T02:45:05.621Z,97.47
2018-05-29T02:46:05.548Z,97.86
2018-05-29T02:47:05.465Z,98.05
2018-05-29T02:48:05.417Z,98.44
2018-05-29T02:49:26.318Z,97.96
2018-05-29T02:50:05.265Z,97.86
2018-05-29T02:51:05.202Z,97.57
2018-05-29T02:52:05.126Z,98.14
2018-05-29T02:53:05.054Z,98.05
2018-05-29T02:54:04.978Z,98.05
2018-05-29T02:55:25.895Z,98.63
2018-05-29T02:56:04.844Z,98.91
2018-05-29T02:57:04.777Z,98.72
2018-05-29T02:58:04.709Z,99.15
2018-05-29T02:59:04.641Z,98.77
2018-05-29T03:00:04.566Z,98.39
2018-05-29T03:01:25.484Z,99.15
2018-05-29T03:02:04.430Z,99.73
2018-05-29T03:03:04.359Z,99.44
2018-05-29T03:04:04.290Z,99.83
2018-05-29T03:05:04.219Z,99.99
2018-05-29T03:06:04.155Z,99.99
2018-05-29T03:07:25.067Z,99.83
2018-05-29T03:08:04.069Z,99.73
2018-05-29T03:09:03.945Z,98.96
2018-05-29T03:10:03.876Z,99.63
2018-05-29T03:11:03.806Z,99.54
2018-05-29T03:12:03.731Z,99.73
2018-05-29T03:13:24.644Z,99.78
2018-05-29T03:14:03.591Z,98.86
2018-05-29T03:15:03.531Z,99.54
2018-05-29T03:16:03.470Z,99.99
2018-05-29T03:17:03.383Z,99.83
2018-05-29T03:18:03.315Z,99.99
2018-05-29T03:19:24.236Z,99.99
2018-05-29T03:20:03.177Z,99.92
2018-05-29T03:21:03.105Z,99.06
2018-05-29T03:22:03.033Z,99.15
2018-05-29T03:23:02.969Z,99.10
2018-05-29T03:24:02.902Z,99.54
2018-05-29T03:25:23.816Z,99.99
2018-05-29T03:26:02.759Z,99.99
2018-05-29T03:27:02.688Z,99.99
2018-05-29T03:28:02.623Z,99.99
2018-05-29T03:29:02.563Z,99.99
2018-05-29T03:30:02.486Z,99.44
2018-05-29T03:31:23.404Z,99.92
2018-05-29T03:32:02.351Z,99.87
2018-05-29T03:33:02.273Z,99.40
2018-05-29T03:34:02.209Z,99.99
2018-05-29T03:35:02.137Z,99.97
2018-05-29T03:36:02.063Z,99.97
2018-05-29T03:37:22.981Z,99.87
2018-05-29T03:38:01.927Z,99.87
2018-05-29T03:39:01.856Z,99.99
2018-05-29T03:40:01.782Z,99.99
2018-05-29T03:41:01.721Z,99.99
2018-05-29T03:42:01.645Z,98.82
2018-05-29T03:43:22.589Z,97.76
2018-05-29T03:44:01.502Z,98.53
2018-05-29T03:45:01.433Z,99.68
2018-05-29T03:46:01.414Z,98.91
2018-05-29T03:47:01.340Z,99.49
2018-05-29T03:48:01.290Z,99.54
2018-05-29T03:49:22.136Z,99.44
2018-05-29T03:50:01.084Z,99.54
2018-05-29T03:51:01.019Z,98.39
2018-05-29T03:52:00.959Z,97.81
2018-05-29T03:53:00.879Z,97.81
2018-05-29T03:54:00.816Z,97.42
2018-05-29T03:55:21.729Z,97.14
2018-05-29T03:56:00.670Z,97.91
2018-05-29T03:57:00.597Z,98.58
2018-05-29T03:58:00.532Z,98.00
2018-05-29T03:59:00.482Z,98.24
2018-05-29T04:00:00.391Z,98.10
2018-05-29T04:01:21.304Z,98.43
2018-05-29T04:02:00.263Z,98.00
2018-05-29T04:03:00.180Z,97.91
2018-05-29T04:04:00.114Z,97.71
2018-05-29T04:05:00.037Z,97.09
2018-05-29T04:05:59.974Z,97.62
2018-05-29T04:07:20.896Z,98.10
2018-05-29T04:07:59.831Z,97.71
2018-05-29T04:08:59.760Z,97.62
2018-05-29T04:09:59.741Z,97.33
2018-05-29T04:10:59.636Z,97.33
2018-05-29T04:11:59.557Z,98.48
2018-05-29T04:13:20.467Z,97.33
2018-05-29T04:13:59.420Z,95.89
2018-05-29T04:14:59.353Z,95.60
2018-05-29T04:15:59.283Z,95.26
2018-05-29T04:16:59.204Z,95.07
2018-05-29T04:17:59.135Z,94.98
2018-05-29T04:19:20.079Z,95.17
2018-05-29T04:19:58.997Z,94.98
2018-05-29T04:20:58.926Z,95.65
2018-05-29T04:21:58.855Z,95.89
2018-05-29T04:22:58.789Z,95.07
2018-05-29T04:23:58.718Z,95.40
2018-05-29T04:25:19.628Z,94.73
2018-05-29T04:25:58.582Z,94.16
2018-05-29T04:26:58.510Z,94.35
2018-05-29T04:27:58.439Z,94.35
2018-05-29T04:28:58.383Z,94.45
2018-05-29T04:29:58.298Z,93.96
2018-05-29T04:31:19.254Z,93.68
2018-05-29T04:31:58.160Z,94.06
2018-05-29T04:32:58.089Z,93.87
2018-05-29T04:33:58.025Z,94.98
2018-05-29T04:34:57.956Z,95.89
2018-05-29T04:35:57.876Z,93.68
2018-05-29T04:37:18.790Z,93.87
2018-05-29T04:37:57.742Z,92.91
2018-05-29T04:38:57.668Z,93.01
2018-05-29T04:39:57.610Z,92.81
2018-05-29T04:40:57.539Z,92.91
2018-05-29T04:41:57.460Z,93.19
2018-05-29T04:43:18.390Z,92.52
2018-05-29T04:43:57.353Z,93.01
2018-05-29T04:44:57.299Z,93.19
2018-05-29T04:45:57.183Z,92.81
2018-05-29T04:46:57.197Z,93.24
2018-05-29T04:47:57.043Z,92.57
2018-05-29T04:49:17.961Z,93.05
2018-05-29T04:49:56.913Z,93.34
2018-05-29T04:50:56.836Z,92.76
2018-05-29T04:51:56.762Z,93.15
2018-05-29T04:52:56.710Z,92.86
2018-05-29T04:53:56.628Z,92.09
2018-05-29T04:55:17.545Z,92.29
2018-05-29T04:55:56.507Z,93.00
2018-05-29T04:56:56.417Z,93.15
2018-05-29T04:57:56.370Z,93.48
2018-05-29T04:58:56.290Z,93.77
2018-05-29T04:59:56.211Z,93.19
2018-05-29T05:01:17.131Z,93.10
2018-05-29T05:01:56.084Z,92.91
2018-05-29T05:02:56.007Z,93.10
2018-05-29T05:03:55.938Z,93.38
2018-05-29T05:04:55.872Z,92.81
2018-05-29T05:05:55.828Z,92.13
2018-05-29T05:07:16.708Z,92.33
2018-05-29T05:07:55.664Z,92.43
2018-05-29T05:08:55.615Z,92.52
2018-05-29T05:09:55.524Z,92.28
2018-05-29T05:10:55.462Z,92.66
2018-05-29T05:11:55.387Z,92.18
2018-05-29T05:13:16.295Z,92.08
2018-05-29T05:13:55.249Z,92.18
2018-05-29T05:14:55.176Z,92.18
2018-05-29T05:15:55.102Z,91.89
2018-05-29T05:16:55.044Z,91.89
2018-05-29T05:17:54.964Z,92.66
2018-05-29T05:19:15.887Z,92.85
2018-05-29T05:19:54.832Z,92.47
2018-05-29T05:20:54.772Z,92.08
2018-05-29T05:21:54.692Z,92.90
2018-05-29T05:22:54.638Z,92.13
2018-05-29T05:23:54.559Z,91.65
2018-05-29T05:25:15.469Z,91.84
2018-05-29T05:25:54.420Z,91.07
2018-05-29T05:26:54.349Z,91.36
2018-05-29T05:27:54.283Z,90.78
2018-05-29T05:28:54.217Z,91.27
2018-05-29T05:29:54.148Z,91.94
2018-05-29T05:31:15.053Z,91.60
2018-05-29T05:31:54.006Z,91.99
2018-05-29T05:32:53.946Z,91.17
2018-05-29T05:33:53.873Z,90.16
2018-05-29T05:34:53.813Z,89.86
2018-05-29T05:35:53.740Z,90.64
2018-05-29T05:37:14.650Z,90.34
2018-05-29T05:37:53.595Z,90.44
2018-05-29T05:38:53.527Z,90.44
2018-05-29T05:39:53.456Z,89.58
2018-05-29T05:40:53.395Z,89.48
2018-05-29T05:41:53.338Z,89.29
2018-05-29T05:43:14.239Z,88.13
2018-05-29T05:43:53.182Z,87.94
2018-05-29T05:44:53.113Z,88.04
2018-05-29T05:45:53.063Z,87.94
2018-05-29T05:46:52.991Z,87.84
2018-05-29T05:47:52.913Z,88.23
2018-05-29T05:49:13.824Z,88.65
2018-05-29T05:49:52.781Z,88.08
2018-05-29T05:50:52.702Z,87.30
2018-05-29T05:51:52.652Z,87.50
2018-05-29T05:52:52.586Z,87.60
2018-05-29T05:53:52.500Z,86.44
2018-05-29T05:55:13.415Z,86.73
2018-05-29T05:55:52.368Z,86.44
2018-05-29T05:56:52.322Z,85.96
2018-05-29T05:57:52.230Z,86.19
2018-05-29T05:58:52.159Z,85.86
2018-05-29T05:59:52.169Z,86.10
2018-05-29T06:01:13.007Z,86.19
2018-05-29T06:01:51.958Z,85.91
2018-05-29T06:02:51.899Z,87.16
2018-05-29T06:03:51.831Z,86.77
2018-05-29T06:04:51.757Z,87.35
2018-05-29T06:05:51.685Z,87.83
2018-05-29T06:07:12.657Z,89.09
2018-05-29T06:07:51.567Z,87.98
2018-05-29T06:08:51.504Z,87.06
2018-05-29T06:09:51.421Z,86.44
2018-05-29T06:10:51.372Z,86.19
2018-05-29T06:11:51.279Z,85.96
2018-05-29T06:13:12.203Z,86.35
2018-05-29T06:13:51.140Z,86.05
2018-05-29T06:14:51.071Z,86.05
2018-05-29T06:15:51.022Z,85.77
2018-05-29T06:16:50.944Z,85.96
2018-05-29T06:17:50.864Z,86.19
2018-05-29T06:19:11.791Z,86.00
2018-05-29T06:19:50.737Z,85.91
2018-05-29T06:20:50.666Z,85.61
2018-05-29T06:21:50.594Z,85.33
2018-05-29T06:22:50.539Z,85.61
2018-05-29T06:23:50.484Z,84.98
2018-05-29T06:25:12.007Z,84.31
2018-05-29T06:25:50.325Z,84.69
2018-05-29T06:26:50.264Z,84.21
2018-05-29T06:27:50.225Z,83.92
2018-05-29T06:28:50.122Z,83.83
2018-05-29T06:29:50.052Z,84.41
2018-05-29T06:31:10.980Z,84.01
2018-05-29T06:31:49.939Z,84.21
2018-05-29T06:32:49.888Z,82.67
2018-05-29T06:33:49.794Z,81.99
2018-05-29T06:34:49.721Z,83.83
2018-05-29T06:35:49.735Z,82.90
2018-05-29T06:37:10.580Z,82.32
2018-05-29T06:37:49.523Z,82.23
2018-05-29T06:38:49.458Z,81.45
2018-05-29T06:39:49.410Z,81.65
2018-05-29T06:40:49.320Z,81.35
2018-05-29T06:41:49.248Z,81.26
2018-05-29T06:43:10.160Z,80.62
2018-05-29T06:43:49.105Z,80.72
2018-05-29T06:44:49.099Z,80.53
2018-05-29T06:45:48.981Z,80.91
2018-05-29T06:46:48.916Z,80.62
2018-05-29T06:47:48.842Z,79.66
2018-05-29T06:49:09.786Z,79.27
2018-05-29T06:49:48.703Z,78.50
2018-05-29T06:50:48.644Z,78.64
2018-05-29T06:51:48.575Z,77.00
2018-05-29T06:52:48.500Z,76.90
2018-05-29T06:53:48.442Z,77.00
2018-05-29T06:55:09.361Z,77.09
2018-05-29T06:55:48.315Z,76.51
2018-05-29T06:56:48.236Z,76.90
2018-05-29T06:57:48.199Z,75.74
2018-05-29T06:58:48.107Z,73.80
2018-05-29T06:59:48.036Z,71.52
2018-05-29T07:01:08.952Z,73.07
2018-05-29T07:01:47.899Z,73.74
2018-05-29T07:02:47.858Z,74.23
2018-05-29T07:03:47.827Z,73.07
2018-05-29T07:04:47.700Z,74.04
2018-05-29T07:05:47.635Z,73.84
2018-05-29T07:07:08.583Z,73.74
2018-05-29T07:07:47.494Z,72.78
2018-05-29T07:08:47.434Z,72.68
2018-05-29T07:09:47.367Z,72.88
2018-05-29T07:10:47.306Z,72.30
2018-05-29T07:11:47.230Z,72.78
2018-05-29T07:13:08.154Z,71.81
2018-05-29T07:13:47.099Z,72.33
2018-05-29T07:14:47.033Z,71.94
2018-05-29T07:15:46.967Z,72.81
2018-05-29T07:16:46.901Z,73.01
2018-05-29T07:17:46.832Z,72.42
2018-05-29T07:19:07.748Z,72.52
2018-05-29T07:19:46.696Z,71.56
2018-05-29T07:20:46.633Z,71.40
2018-05-29T07:21:46.566Z,71.50
2018-05-29T07:22:46.499Z,69.85
2018-05-29T07:23:46.427Z,69.08
2018-05-29T07:25:07.358Z,68.59
2018-05-29T07:25:46.303Z,68.59
2018-05-29T07:26:46.244Z,68.88
2018-05-29T07:27:46.165Z,68.69
2018-05-29T07:28:46.107Z,68.59
2018-05-29T07:29:46.029Z,69.31
2018-05-29T07:31:06.959Z,68.49
2018-05-29T07:31:45.958Z,68.49
2018-05-29T07:32:45.831Z,69.95
2018-05-29T07:33:45.772Z,68.40
2018-05-29T07:34:45.696Z,68.43
2018-05-29T07:35:45.638Z,68.43
2018-05-29T07:37:06.553Z,68.53
2018-05-29T07:37:45.520Z,68.53
2018-05-29T07:38:45.439Z,68.82
2018-05-29T07:39:45.382Z,68.76
2018-05-29T07:40:45.310Z,68.85
2018-05-29T07:41:45.278Z,68.56
2018-05-29T07:43:06.163Z,68.27
2018-05-29T07:43:45.107Z,68.66
2018-05-29T07:44:45.036Z,70.31
2018-05-29T07:45:44.976Z,70.60
2018-05-29T07:46:44.917Z,69.82
2018-05-29T07:47:44.843Z,68.85
2018-05-29T07:49:05.759Z,69.92
2018-05-29T07:49:44.793Z,69.92
2018-05-29T07:50:44.667Z,69.34
2018-05-29T07:51:44.585Z,70.70
2018-05-29T07:52:44.520Z,71.47
2018-05-29T07:53:44.455Z,69.73
2018-05-29T07:55:05.423Z,69.43
2018-05-29T07:55:44.353Z,69.92
2018-05-29T07:56:44.261Z,69.50
2018-05-29T07:57:44.194Z,69.79
2018-05-29T07:58:44.159Z,70.40
2018-05-29T07:59:44.068Z,70.01
2018-05-29T08:01:05.007Z,70.50
2018-05-29T08:01:43.921Z,70.60
2018-05-29T08:02:43.865Z,70.40
2018-05-29T08:03:43.802Z,69.82
2018-05-29T08:04:43.752Z,69.15
2018-05-29T08:05:43.698Z,69.18
2018-05-29T08:07:04.596Z,69.76
2018-05-29T08:07:43.532Z,69.67
2018-05-29T08:08:43.478Z,69.37
2018-05-29T08:09:43.439Z,69.18
2018-05-29T08:10:43.341Z,70.67
2018-05-29T08:11:43.268Z,69.02
2018-05-29T08:13:04.209Z,68.92
2018-05-29T08:13:43.164Z,68.82
2018-05-29T08:14:43.066Z,68.73
2018-05-29T08:15:43.004Z,68.44
2018-05-29T08:16:42.950Z,68.63
2018-05-29T08:17:42.870Z,68.63
2018-05-29T08:19:03.799Z,67.99
2018-05-29T08:19:42.765Z,68.37
2018-05-29T08:20:42.674Z,68.86
2018-05-29T08:21:42.619Z,68.08
2018-05-29T08:22:42.544Z,67.79
2018-05-29T08:23:42.484Z,67.60
2018-05-29T08:25:03.411Z,67.40
2018-05-29T08:25:42.349Z,67.31
2018-05-29T08:26:42.286Z,67.21
2018-05-29T08:27:42.222Z,67.89
2018-05-29T08:28:42.164Z,68.18
2018-05-29T08:29:42.091Z,66.14
2018-05-29T08:31:03.083Z,66.37
2018-05-29T08:31:41.970Z,66.37
2018-05-29T08:32:41.898Z,66.95
2018-05-29T08:33:41.831Z,66.53
2018-05-29T08:34:41.780Z,66.53
2018-05-29T08:35:41.711Z,66.56
2018-05-29T08:37:02.627Z,66.56
2018-05-29T08:37:41.579Z,66.95
2018-05-29T08:38:41.516Z,67.05
2018-05-29T08:39:41.447Z,67.34
2018-05-29T08:40:41.388Z,66.56
2018-05-29T08:41:41.320Z,66.56
2018-05-29T08:43:02.237Z,67.05
2018-05-29T08:43:41.199Z,66.66
2018-05-29T08:44:41.122Z,65.79
2018-05-29T08:45:41.056Z,65.40
2018-05-29T08:46:40.999Z,66.37
2018-05-29T08:47:40.928Z,66.66
2018-05-29T08:49:01.855Z,66.99
2018-05-29T08:49:40.808Z,66.40
2018-05-29T08:50:40.744Z,66.50
2018-05-29T08:51:40.673Z,65.72
2018-05-29T08:52:40.609Z,65.33
2018-05-29T08:53:40.544Z,64.95
2018-05-29T08:55:01.467Z,65.53
2018-05-29T08:55:40.418Z,64.85
2018-05-29T08:56:40.365Z,64.56
2018-05-29T08:57:40.295Z,64.65
2018-05-29T08:58:40.222Z,65.08
2018-05-29T08:59:40.153Z,64.65
2018-05-29T09:01:01.079Z,64.85
2018-05-29T09:01:40.027Z,64.95
2018-05-29T09:02:39.967Z,66.30
2018-05-29T09:03:39.909Z,66.44
2018-05-29T09:04:39.844Z,66.92
2018-05-29T09:05:39.784Z,65.47
2018-05-29T09:07:00.700Z,65.75
2018-05-29T09:07:39.646Z,66.53
2018-05-29T09:08:39.580Z,65.75
2018-05-29T09:09:39.520Z,64.59
2018-05-29T09:10:39.477Z,64.88
2018-05-29T09:11:39.396Z,63.71
2018-05-29T09:13:00.315Z,62.74
2018-05-29T09:13:39.289Z,63.32
2018-05-29T09:14:39.202Z,63.32
2018-05-29T09:15:39.137Z,63.55
2018-05-29T09:16:39.086Z,63.65
2018-05-29T09:17:39.012Z,62.48
2018-05-29T09:18:59.935Z,62.19
2018-05-29T09:19:38.879Z,62.77
2018-05-29T09:20:38.820Z,61.71
2018-05-29T09:21:38.769Z,62.38
2018-05-29T09:22:38.694Z,62.77
2018-05-29T09:23:38.652Z,62.87
2018-05-29T09:24:59.551Z,62.77
2018-05-29T09:25:38.500Z,62.68
2018-05-29T09:26:38.439Z,62.48
2018-05-29T09:27:38.409Z,61.64
2018-05-29T09:28:38.319Z,61.93
2018-05-29T09:29:38.274Z,61.64
2018-05-29T09:30:59.180Z,62.03
2018-05-29T09:31:38.129Z,60.53
2018-05-29T09:32:38.077Z,59.69
2018-05-29T09:33:38.006Z,58.94
2018-05-29T09:34:37.949Z,58.06
2018-05-29T09:35:37.905Z,57.15
2018-05-29T09:36:58.818Z,58.06
2018-05-29T09:37:37.756Z,57.37
2018-05-29T09:38:37.710Z,57.18
2018-05-29T09:39:37.639Z,55.68
2018-05-29T09:40:37.591Z,55.51
2018-05-29T09:41:37.531Z,54.66
2018-05-29T09:42:58.455Z,54.30
2018-05-29T09:43:37.396Z,52.95
2018-05-29T09:44:37.401Z,51.88
2018-05-29T09:45:37.283Z,52.37
2018-05-29T09:46:37.258Z,51.81
2018-05-29T09:47:37.161Z,51.05
2018-05-29T09:48:58.096Z,50.49
2018-05-29T09:49:37.044Z,49.14
2018-05-29T09:50:36.989Z,48.85
2018-05-29T09:51:36.935Z,48.85
2018-05-29T09:52:36.876Z,49.24
2018-05-29T09:53:36.815Z,50.34
2018-05-29T09:54:57.761Z,51.42
2018-05-29T09:55:36.703Z,51.05
2018-05-29T09:56:36.647Z,50.10
2018-05-29T09:57:36.587Z,49.04
2018-05-29T09:58:36.534Z,47.89
2018-05-29T09:59:36.482Z,47.50
2018-05-29T10:00:57.407Z,47.30
2018-05-29T10:01:36.377Z,47.89
2018-05-29T10:02:36.309Z,48.28
2018-05-29T10:03:36.255Z,48.33
2018-05-29T10:04:36.214Z,49.77
2018-05-29T10:05:36.141Z,49.82
2018-05-29T10:06:57.127Z,50.90
2018-05-29T10:07:36.035Z,51.56
2018-05-29T10:08:35.981Z,52.39
2018-05-29T10:09:35.922Z,53.07
2018-05-29T10:10:35.877Z,53.24
2018-05-29T10:11:35.811Z,54.68
2018-05-29T10:12:56.746Z,55.36
2018-05-29T10:13:35.701Z,55.72
2018-05-29T10:14:35.648Z,56.30
2018-05-29T10:15:35.601Z,54.77
2018-05-29T10:16:35.525Z,55.19
2018-05-29T10:17:35.467Z,53.75
2018-05-29T10:18:56.401Z,53.42
2018-05-29T10:19:35.351Z,52.66
2018-05-29T10:20:35.307Z,51.78
2018-05-29T10:21:35.241Z,51.42
2018-05-29T10:22:35.193Z,51.46
2018-05-29T10:23:35.130Z,53.36
2018-05-29T10:24:56.069Z,52.87
2018-05-29T10:25:35.014Z,53.66
2018-05-29T10:26:34.964Z,53.95
2018-05-29T10:27:34.895Z,53.56
2018-05-29T10:28:34.840Z,53.44
2018-05-29T10:29:34.783Z,53.73
2018-05-29T10:30:55.729Z,53.39
2018-05-29T10:31:34.670Z,52.05
2018-05-29T10:32:34.609Z,51.66
2018-05-29T10:33:34.548Z,51.12
2018-05-29T10:34:34.500Z,49.87
2018-05-29T10:35:34.435Z,49.85
2018-05-29T10:36:55.378Z,50.44
2018-05-29T10:37:34.348Z,50.34
2018-05-29T10:38:34.326Z,50.73
2018-05-29T10:39:34.212Z,50.88
2018-05-29T10:40:34.155Z,50.42
2018-05-29T10:41:34.093Z,50.42
2018-05-29T10:42:55.028Z,48.33
2018-05-29T10:43:33.977Z,49.21
2018-05-29T10:44:33.923Z,48.90
2018-05-29T10:45:33.865Z,49.38
2018-05-29T10:46:33.807Z,48.99
2018-05-29T10:47:33.750Z,49.95
2018-05-29T10:48:54.684Z,50.15
2018-05-29T10:49:33.632Z,51.00
2018-05-29T10:50:33.578Z,50.81
2018-05-29T10:51:33.523Z,51.00
2018-05-29T10:52:33.480Z,50.02
2018-05-29T10:53:33.405Z,51.43
2018-05-29T10:54:54.332Z,51.80
2018-05-29T10:55:33.294Z,53.27
2018-05-29T10:56:33.238Z,54.31
2018-05-29T10:57:33.170Z,53.75
2018-05-29T10:58:33.112Z,53.27
2018-05-29T10:59:33.054Z,52.41
2018-05-29T11:00:53.981Z,51.78
2018-05-29T11:01:32.937Z,50.42
2018-05-29T11:02:32.880Z,50.71
2018-05-29T11:03:32.824Z,50.71
2018-05-29T11:04:32.761Z,50.90
2018-05-29T11:05:32.744Z,50.42
2018-05-29T11:06:53.680Z,49.53
2018-05-29T11:07:32.584Z,49.95
2018-05-29T11:08:32.556Z,49.85
2018-05-29T11:09:32.464Z,49.85
2018-05-29T11:10:32.438Z,49.85
2018-05-29T11:11:32.354Z,50.05
2018-05-29T11:12:53.269Z,49.43
2018-05-29T11:13:32.226Z,51.46
2018-05-29T11:14:32.173Z,51.27
2018-05-29T11:15:32.102Z,51.46
2018-05-29T11:16:32.048Z,51.78
2018-05-29T11:17:31.994Z,50.68
2018-05-29T11:18:52.916Z,50.39
2018-05-29T11:19:31.867Z,49.02
2018-05-29T11:20:31.815Z,49.04
2018-05-29T11:21:31.748Z,48.85
2018-05-29T11:22:31.704Z,48.93
2018-05-29T11:23:31.627Z,50.51
2018-05-29T11:24:52.559Z,50.12
2018-05-29T11:25:31.518Z,49.53
2018-05-29T11:26:31.456Z,50.49
2018-05-29T11:27:31.394Z,50.39
2018-05-29T11:28:31.341Z,51.00
2018-05-29T11:29:31.276Z,51.00
2018-05-29T11:30:52.214Z,52.17
2018-05-29T11:31:31.168Z,50.49
2018-05-29T11:32:31.099Z,51.37
2018-05-29T11:33:31.051Z,51.56
2018-05-29T11:34:30.982Z,52.34
2018-05-29T11:35:30.920Z,52.64
2018-05-29T11:36:51.849Z,52.54
2018-05-29T11:37:30.817Z,52.31
2018-05-29T11:38:30.736Z,53.00
2018-05-29T11:39:30.697Z,52.51
2018-05-29T11:40:30.624Z,52.80
2018-05-29T11:41:30.560Z,51.86
2018-05-29T11:42:51.484Z,51.86
2018-05-29T11:43:30.484Z,51.66
2018-05-29T11:44:30.379Z,51.59
2018-05-29T11:45:30.331Z,51.00
2018-05-29T11:46:30.260Z,50.32
2018-05-29T11:47:30.223Z,50.71
2018-05-29T11:48:51.130Z,49.92
2018-05-29T11:49:30.090Z,50.22
2018-05-29T11:50:30.011Z,51.00
2018-05-29T11:51:29.959Z,51.39
2018-05-29T11:52:29.921Z,52.05
2018-05-29T11:53:29.828Z,51.66
2018-05-29T11:54:50.828Z,52.34
2018-05-29T11:55:29.721Z,52.22
2018-05-29T11:56:29.653Z,52.61
2018-05-29T11:57:29.588Z,53.39
2018-05-29T11:58:29.536Z,52.97
2018-05-29T11:59:29.469Z,52.78
2018-05-29T12:00:50.396Z,54.05
2018-05-29T12:01:29.355Z,53.36
2018-05-29T12:02:29.289Z,54.05
2018-05-29T12:03:29.227Z,52.48
2018-05-29T12:04:29.186Z,52.36
2018-05-29T12:05:29.113Z,52.58
2018-05-29T12:06:50.050Z,53.07
2018-05-29T12:07:28.984Z,53.24
2018-05-29T12:08:28.926Z,51.97
2018-05-29T12:09:28.865Z,52.39
2018-05-29T12:10:28.813Z,52.78
2018-05-29T12:11:28.753Z,53.07
2018-05-29T12:12:49.672Z,52.29
2018-05-29T12:13:28.615Z,52.26
2018-05-29T12:14:28.559Z,52.95
2018-05-29T12:15:28.515Z,53.56
2018-05-29T12:16:28.434Z,52.97
2018-05-29T12:17:28.376Z,53.46
2018-05-29T12:18:49.301Z,53.07
2018-05-29T12:19:28.271Z,52.97
2018-05-29T12:20:28.189Z,52.39
2018-05-29T12:21:28.138Z,51.82
2018-05-29T12:22:28.067Z,51.53
2018-05-29T12:23:28.010Z,51.41
2018-05-29T12:24:48.937Z,51.80
2018-05-29T12:25:27.892Z,52.68
2018-05-29T12:26:27.818Z,52.95
2018-05-29T12:27:27.800Z,51.39
2018-05-29T12:28:27.712Z,52.66
2018-05-29T12:29:27.635Z,52.36
2018-05-29T12:30:48.567Z,53.44
2018-05-29T12:31:27.520Z,52.85
2018-05-29T12:32:27.454Z,53.63
2018-05-29T12:33:27.388Z,55.51
2018-05-29T12:34:27.341Z,54.11
2018-05-29T12:35:27.265Z,52.36
2018-05-29T12:36:48.197Z,52.17
2018-05-29T12:37:27.146Z,52.36
2018-05-29T12:38:27.098Z,52.26
2018-05-29T12:39:27.021Z,53.27
2018-05-29T12:40:27.033Z,53.66
2018-05-29T12:41:26.896Z,52.61
2018-05-29T12:42:47.827Z,50.98
2018-05-29T12:43:26.776Z,51.37
2018-05-29T12:44:26.716Z,49.90
2018-05-29T12:45:26.665Z,48.94
2018-05-29T12:46:26.701Z,48.36
2018-05-29T12:47:26.529Z,48.85
2018-05-29T12:48:47.458Z,49.90
2018-05-29T12:49:26.403Z,50.49
2018-05-29T12:50:26.340Z,50.98
2018-05-29T12:51:26.294Z,49.32